CYQK

Kenora Airport

Kenora, Ontario, Canada
METAR CYQK 131000Z 19009KT 1 3/4SM -SN VV009 M04/M05 A2972 RMK SN8 SLP089
Observed Flight Rules
Dec-13 @ 10:00 UTC (51 minutes ago) Instrument Flight Rules
Wind Visibility Clouds Conditions
190° at 9 knots 1 3/4 miles
  • Vertical visibility at 900' AGL
  • Light Snow
Temperatures Readings
Current -4°C / 25°F
Dewpoint -5°C / 23°F
Humidity 93%
Altimeter 29.72" Hg
Pressure 1008.9 hPa
Elevation 411
METAR CYQK 131000Z 19009KT 1 3/4SM -SN VV009 M04/M05 A2972 RMK SN8 SLP089
Observed Flight Rules
Dec-13 @ 10:00 UTC
(51 minutes ago)
LIFR
Wind Visibility
190° at 9 knots 1 3/4 miles
Clouds
  • Vertical visibility at 900' AGL
Conditions
  • Light Snow
Temperature Dewpoint
-4°C / 25°F -5°C / 23°F
Humidity Altimeter Pressure
93% 29.72" Hg 1008.9 hPa